Time;durP1;ratioP1;P1;durP2;ratioP2;P2;SDS_P1;SDS_P2;PMS_P1;PMS_P2;Temp;Humidity;BMP_temperature;BMP_pressure;BME280_temperature;BME280_humidity;BME280_pressure;Samples;Min_cycle;Max_cycle;Signal;HPM_P1;HPM_P2
2023/07/19 00:00:16;;;;;;;0.85;0.85;;;13.60;99.90;;;;;;5031031;28;20251;-73
2023/07/19 00:02:42;;;;;;;0.30;0.30;;;13.50;99.90;;;;;;5049233;28;20300;-74
2023/07/19 00:05:09;;;;;;;0.30;0.30;;;13.50;99.90;;;;;;5070361;28;20316;-74
2023/07/19 00:07:34;;;;;;;0.30;0.30;;;13.50;99.90;;;;;;5052915;28;20190;-73
2023/07/19 00:10:00;;;;;;;0.30;0.30;;;13.40;99.90;;;;;;5051121;28;20212;-73
2023/07/19 00:12:26;;;;;;;0.38;0.38;;;13.40;99.90;;;;;;5050663;28;20198;-73
2023/07/19 00:14:52;;;;;;;0.90;0.82;;;13.50;99.90;;;;;;5051001;28;20193;-73
2023/07/19 00:17:17;;;;;;;0.35;0.35;;;13.50;99.90;;;;;;5050927;28;20239;-74
2023/07/19 00:19:43;;;;;;;0.60;0.60;;;13.50;99.90;;;;;;5051399;28;20223;-74
2023/07/19 00:22:09;;;;;;;0.68;0.68;;;13.50;99.90;;;;;;5051468;28;20231;-74
2023/07/19 00:24:35;;;;;;;0.30;0.30;;;13.50;99.90;;;;;;5050721;28;20676;-74
2023/07/19 00:27:00;;;;;;;0.35;0.35;;;13.40;99.90;;;;;;5051042;28;20201;-74
2023/07/19 00:29:26;;;;;;;0.35;0.35;;;13.30;99.90;;;;;;5050535;28;20494;-74
2023/07/19 00:31:52;;;;;;;0.30;0.30;;;13.30;99.90;;;;;;5050981;28;20231;-74
2023/07/19 00:34:18;;;;;;;0.65;0.65;;;13.20;99.90;;;;;;5050624;28;20208;-73
2023/07/19 00:36:43;;;;;;;0.50;0.50;;;13.30;99.90;;;;;;5050470;28;20220;-74
2023/07/19 00:39:09;;;;;;;0.35;0.35;;;13.40;99.90;;;;;;5050469;28;20288;-73
2023/07/19 00:41:35;;;;;;;0.30;0.30;;;13.40;99.90;;;;;;5048708;28;20982;-73
2023/07/19 00:44:01;;;;;;;0.75;0.75;;;13.40;99.90;;;;;;5049905;28;20221;-73
2023/07/19 00:46:27;;;;;;;0.40;0.40;;;13.40;99.90;;;;;;5048977;28;20208;-74
2023/07/19 00:48:54;;;;;;;0.30;0.30;;;13.50;99.90;;;;;;5049367;28;20633;-73
2023/07/19 00:51:21;;;;;;;0.40;0.40;;;13.50;99.90;;;;;;5050485;28;20717;-72
2023/07/19 00:53:48;;;;;;;0.30;0.30;;;13.50;99.90;;;;;;5049343;28;20193;-74
2023/07/19 00:56:24;;;;;;;0.30;0.30;;;13.50;99.90;;;;;;5050879;28;20648;-73
2023/07/19 00:58:50;;;;;;;0.32;0.32;;;13.60;99.90;;;;;;5050588;28;20727;-74
2023/07/19 01:01:16;;;;;;;0.30;0.30;;;13.60;99.90;;;;;;5052037;22;20238;-72
2023/07/19 01:03:42;;;;;;;0.30;0.30;;;13.70;99.90;;;;;;5033826;28;20216;-73
2023/07/19 01:06:08;;;;;;;0.40;0.40;;;13.70;99.90;;;;;;5033856;28;20193;-73
2023/07/19 01:08:34;;;;;;;0.30;0.30;;;13.70;99.90;;;;;;5032784;28;20594;-73
2023/07/19 01:11:00;;;;;;;2.00;0.88;;;13.70;99.90;;;;;;5034064;28;20210;-72
2023/07/19 01:13:26;;;;;;;0.30;0.30;;;13.50;99.90;;;;;;5033327;28;20192;-73
2023/07/19 01:15:52;;;;;;;0.65;0.50;;;13.40;99.90;;;;;;5049150;28;20752;-72
2023/07/19 01:18:19;;;;;;;0.30;0.30;;;13.50;99.90;;;;;;5033544;28;20190;-73
2023/07/19 01:20:45;;;;;;;0.77;0.77;;;13.40;99.90;;;;;;5034001;28;20244;-73
2023/07/19 01:23:11;;;;;;;0.20;0.20;;;13.40;99.90;;;;;;5048940;28;20248;-71
2023/07/19 01:25:37;;;;;;;0.40;0.40;;;13.40;99.90;;;;;;5033196;28;20205;-72
2023/07/19 01:28:03;;;;;;;0.68;0.68;;;13.50;99.90;;;;;;5033984;28;20269;-73
2023/07/19 01:30:29;;;;;;;0.30;0.30;;;13.50;99.90;;;;;;5033353;28;20198;-74
2023/07/19 01:32:55;;;;;;;0.30;0.30;;;13.60;99.90;;;;;;5032533;28;20202;-73
2023/07/19 01:35:22;;;;;;;0.50;0.50;;;13.60;99.90;;;;;;5033298;28;20194;-71
2023/07/19 01:37:48;;;;;;;0.40;0.40;;;13.60;99.90;;;;;;5033360;28;20722;-73
2023/07/19 01:40:14;;;;;;;0.30;0.30;;;13.60;99.90;;;;;;5048774;28;20269;-73
2023/07/19 01:42:40;;;;;;;0.40;0.40;;;13.50;99.90;;;;;;5047902;28;20224;-74
2023/07/19 01:45:06;;;;;;;0.40;0.40;;;13.40;99.90;;;;;;5031650;28;20245;-73
2023/07/19 01:47:32;;;;;;;0.30;0.30;;;13.50;99.90;;;;;;5032306;28;20186;-73
2023/07/19 01:49:59;;;;;;;0.30;0.30;;;13.50;99.90;;;;;;5033339;28;20281;-74
2023/07/19 01:52:25;;;;;;;0.30;0.30;;;13.40;99.90;;;;;;5031370;28;20708;-72
2023/07/19 01:54:51;;;;;;;1.38;0.65;;;13.40;99.90;;;;;;5032929;28;20232;-73
2023/07/19 01:57:17;;;;;;;0.38;0.38;;;13.30;99.90;;;;;;5048260;28;20562;-74
2023/07/19 01:59:43;;;;;;;0.30;0.30;;;13.30;99.90;;;;;;5032535;28;20663;-74
2023/07/19 02:02:08;;;;;;;1.00;0.50;;;13.30;99.90;;;;;;5032435;28;20246;-72
2023/07/19 02:04:34;;;;;;;0.77;0.77;;;13.40;99.90;;;;;;5031789;28;20201;-74
2023/07/19 02:07:00;;;;;;;0.35;0.35;;;13.20;99.90;;;;;;5032989;28;20194;-74
2023/07/19 02:09:26;;;;;;;0.30;0.30;;;13.10;99.90;;;;;;5032543;28;20213;-74
2023/07/19 02:11:51;;;;;;;0.40;0.40;;;13.10;99.90;;;;;;5032324;28;20680;-73
2023/07/19 02:14:18;;;;;;;0.30;0.30;;;13.20;99.90;;;;;;5032581;28;20281;-74
2023/07/19 02:16:44;;;;;;;0.40;0.40;;;13.10;99.90;;;;;;5032550;28;20194;-74
2023/07/19 02:19:10;;;;;;;0.40;0.40;;;13.20;99.90;;;;;;5031314;28;20205;-73
2023/07/19 02:21:35;;;;;;;2.85;0.85;;;13.20;99.90;;;;;;5032002;28;20205;-72
2023/07/19 02:24:01;;;;;;;0.73;0.63;;;13.40;99.90;;;;;;5030597;28;20376;-73
2023/07/19 02:26:27;;;;;;;0.38;0.38;;;13.40;99.90;;;;;;5032125;28;20194;-72
2023/07/19 02:28:53;;;;;;;0.22;0.22;;;13.30;99.90;;;;;;5032437;28;20264;-72
2023/07/19 02:31:18;;;;;;;0.30;0.30;;;13.20;99.90;;;;;;5047505;28;20198;-73
2023/07/19 02:33:47;;;;;;;0.30;0.30;;;13.20;99.90;;;;;;5032100;28;20594;-73
2023/07/19 02:36:13;;;;;;;0.30;0.30;;;13.30;99.90;;;;;;5047296;28;20565;-73
2023/07/19 02:38:39;;;;;;;0.38;0.38;;;13.30;99.90;;;;;;5030178;28;20289;-73
2023/07/19 02:41:06;;;;;;;0.30;0.30;;;13.20;99.90;;;;;;5032158;28;20228;-73
2023/07/19 02:43:32;;;;;;;0.50;0.50;;;13.10;99.90;;;;;;5031949;28;20672;-72
2023/07/19 02:45:57;;;;;;;0.50;0.50;;;13.00;99.90;;;;;;5031962;28;20198;-74
2023/07/19 02:48:23;;;;;;;0.40;0.40;;;13.00;99.90;;;;;;5031939;28;20187;-75
2023/07/19 02:50:49;;;;;;;0.40;0.40;;;13.00;99.90;;;;;;5032083;28;20186;-72
2023/07/19 02:53:16;;;;;;;0.32;0.32;;;13.20;99.90;;;;;;5030584;28;20748;-73
2023/07/19 02:55:48;;;;;;;0.30;0.30;;;13.30;99.90;;;;;;5031812;28;20198;-73
2023/07/19 02:58:14;;;;;;;0.77;0.77;;;13.30;99.90;;;;;;5031921;28;20202;-74
2023/07/19 03:00:41;;;;;;;0.50;0.50;;;13.40;99.90;;;;;;5031051;28;20214;-73
2023/07/19 03:03:09;;;;;;;0.32;0.32;;;13.50;99.90;;;;;;5036946;28;20210;-73
2023/07/19 03:05:39;;;;;;;0.40;0.40;;;13.50;99.90;;;;;;5031050;28;20203;-72
2023/07/19 03:08:09;;;;;;;4.97;1.05;;;13.50;99.90;;;;;;5030964;28;20213;-73
2023/07/19 03:10:36;;;;;;;0.40;0.40;;;13.50;99.90;;;;;;5031365;28;20194;-73
2023/07/19 03:13:02;;;;;;;0.40;0.40;;;13.50;99.90;;;;;;5031895;28;20205;-72
2023/07/19 03:15:33;;;;;;;0.40;0.40;;;13.60;99.90;;;;;;5031045;28;20206;-73
2023/07/19 03:18:03;;;;;;;0.30;0.30;;;13.60;99.90;;;;;;5031664;28;20224;-72
2023/07/19 03:20:30;;;;;;;0.30;0.30;;;13.60;99.90;;;;;;5030032;28;20317;-73
2023/07/19 03:22:56;;;;;;;0.30;0.30;;;13.60;99.90;;;;;;5030359;28;20608;-73
2023/07/19 03:25:23;;;;;;;0.40;0.40;;;13.70;99.90;;;;;;5031702;28;20193;-73
2023/07/19 03:27:50;;;;;;;0.30;0.30;;;13.70;99.90;;;;;;5031636;28;20179;-73
2023/07/19 03:30:15;;;;;;;0.43;0.38;;;13.70;99.90;;;;;;5046296;28;20570;-72
2023/07/19 03:32:41;;;;;;;0.50;0.50;;;13.80;99.90;;;;;;5046284;28;20198;-73
2023/07/19 03:35:08;;;;;;;0.30;0.30;;;13.90;99.90;;;;;;5030923;28;20573;-74
2023/07/19 03:37:36;;;;;;;1.10;0.73;;;14.00;99.90;;;;;;5030846;28;20841;-73
2023/07/19 03:40:04;;;;;;;0.30;0.30;;;13.80;99.90;;;;;;5031093;28;20221;-69
2023/07/19 03:42:31;;;;;;;0.52;0.52;;;13.60;99.90;;;;;;5030897;28;20681;-68
2023/07/19 03:44:56;;;;;;;0.57;0.57;;;13.60;99.90;;;;;;5029526;28;20232;-68
2023/07/19 03:47:22;;;;;;;0.40;0.40;;;13.70;99.90;;;;;;5029309;28;20222;-68
2023/07/19 03:49:48;;;;;;;0.82;0.82;;;13.90;99.90;;;;;;5030780;28;20231;-68
2023/07/19 03:52:13;;;;;;;0.40;0.40;;;14.10;99.90;;;;;;5030134;28;20194;-68
2023/07/19 03:54:39;;;;;;;0.32;0.32;;;14.10;99.90;;;;;;5030757;28;20275;-68
2023/07/19 03:57:05;;;;;;;0.38;0.38;;;14.20;99.90;;;;;;5030695;28;20301;-68
2023/07/19 03:59:31;;;;;;;0.40;0.40;;;14.20;99.90;;;;;;5030524;28;20232;-68
2023/07/19 04:01:57;;;;;;;0.30;0.30;;;14.20;99.90;;;;;;5031840;28;20229;-69
2023/07/19 04:04:22;;;;;;;0.40;0.40;;;14.20;99.90;;;;;;5050760;28;20182;-69
2023/07/19 04:06:48;;;;;;;0.40;0.40;;;14.20;99.90;;;;;;5038451;28;20194;-68
2023/07/19 04:09:14;;;;;;;0.40;0.40;;;14.10;99.90;;;;;;5030722;28;20232;-68
2023/07/19 04:11:39;;;;;;;0.90;0.50;;;14.20;99.90;;;;;;5030373;28;20194;-69
2023/07/19 04:14:05;;;;;;;0.30;0.30;;;14.30;99.90;;;;;;5030497;28;20202;-69
2023/07/19 04:16:31;;;;;;;6.32;1.40;;;14.50;99.90;;;;;;5030122;28;20504;-67
2023/07/19 04:18:57;;;;;;;0.30;0.30;;;14.70;99.90;;;;;;5030492;28;20217;-69
2023/07/19 04:21:22;;;;;;;1.35;0.77;;;14.80;99.90;;;;;;5030425;28;20213;-68
2023/07/19 04:23:48;;;;;;;0.88;0.60;;;14.90;99.90;;;;;;5029123;28;20194;-69
2023/07/19 04:26:14;;;;;;;0.30;0.30;;;15.10;99.90;;;;;;5030389;28;20198;-70
2023/07/19 04:28:40;;;;;;;0.35;0.32;;;15.10;99.90;;;;;;5029567;28;20221;-68
2023/07/19 04:31:06;;;;;;;4.13;1.30;;;15.10;99.90;;;;;;5030377;28;20196;-68
2023/07/19 04:33:32;;;;;;;0.57;0.57;;;15.10;99.90;;;;;;5029997;28;20491;-68
2023/07/19 04:35:57;;;;;;;0.30;0.30;;;15.20;99.90;;;;;;5034231;28;20236;-68
2023/07/19 04:38:23;;;;;;;0.55;0.52;;;15.30;99.90;;;;;;5032731;28;20232;-68
2023/07/19 04:40:49;;;;;;;0.30;0.30;;;15.40;99.90;;;;;;5034211;28;20198;-69
2023/07/19 04:43:14;;;;;;;0.82;0.35;;;15.40;99.90;;;;;;5034207;28;20221;-70
2023/07/19 04:45:43;;;;;;;0.30;0.30;;;15.60;99.90;;;;;;5034606;28;20194;-68
2023/07/19 04:48:09;;;;;;;1.48;0.65;;;15.50;99.90;;;;;;5032671;28;20198;-68
2023/07/19 04:50:35;;;;;;;0.50;0.50;;;15.40;99.90;;;;;;5033925;28;20224;-69
2023/07/19 04:53:00;;;;;;;1.10;1.00;;;15.50;99.90;;;;;;5034017;28;20202;-69
2023/07/19 04:55:26;;;;;;;0.30;0.30;;;15.50;99.90;;;;;;5033637;28;20339;-69
2023/07/19 04:57:52;;;;;;;3.20;0.50;;;15.60;99.90;;;;;;5033968;28;20198;-70
2023/07/19 05:00:17;;;;;;;0.30;0.30;;;15.70;99.90;;;;;;5033841;28;20704;-68
2023/07/19 05:02:43;;;;;;;0.30;0.30;;;15.60;99.90;;;;;;5033210;28;20226;-68
2023/07/19 05:05:12;;;;;;;0.30;0.30;;;15.50;99.90;;;;;;5033958;28;20742;-69
2023/07/19 05:07:38;;;;;;;0.40;0.40;;;15.40;99.90;;;;;;5031567;28;20190;-68
2023/07/19 05:10:05;;;;;;;0.50;0.40;;;15.50;99.90;;;;;;5034154;28;20197;-68
2023/07/19 05:12:31;;;;;;;0.50;0.50;;;15.50;99.90;;;;;;5033604;28;20743;-68
2023/07/19 05:14:58;;;;;;;0.30;0.30;;;15.60;99.90;;;;;;5033725;28;20209;-69
2023/07/19 05:17:24;;;;;;;0.45;0.45;;;15.70;99.90;;;;;;5033737;28;20198;-70
2023/07/19 05:19:50;;;;;;;0.40;0.40;;;15.60;99.90;;;;;;5033679;28;20281;-69
2023/07/19 05:22:16;;;;;;;0.30;0.30;;;15.80;99.90;;;;;;5033320;28;20724;-69
2023/07/19 05:24:41;;;;;;;0.25;0.25;;;15.90;99.90;;;;;;5033409;28;20244;-68
2023/07/19 05:27:07;;;;;;;0.20;0.20;;;16.00;99.90;;;;;;5033208;28;20194;-69
2023/07/19 05:29:33;;;;;;;0.20;0.20;;;16.00;99.90;;;;;;5031991;28;20340;-68
2023/07/19 05:31:59;;;;;;;0.30;0.30;;;15.90;99.90;;;;;;5033374;28;20206;-68
2023/07/19 05:34:25;;;;;;;0.20;0.20;;;16.10;99.90;;;;;;5033001;28;20227;-68
2023/07/19 05:36:51;;;;;;;0.35;0.35;;;16.30;99.90;;;;;;5034076;28;20221;-69
2023/07/19 05:39:17;;;;;;;0.45;0.45;;;16.50;99.90;;;;;;5033260;28;20198;-69
2023/07/19 05:41:42;;;;;;;0.30;0.30;;;16.50;99.90;;;;;;5032897;28;20321;-69
2023/07/19 05:44:08;;;;;;;0.52;0.52;;;16.60;99.90;;;;;;5033264;28;20222;-69
2023/07/19 05:46:37;;;;;;;1.55;0.57;;;16.80;99.90;;;;;;5031426;28;20277;-69
2023/07/19 05:49:03;;;;;;;0.20;0.20;;;17.00;99.90;;;;;;5013397;28;20294;-70
2023/07/19 05:51:29;;;;;;;0.50;0.50;;;17.10;99.90;;;;;;5012923;28;20191;-70
2023/07/19 05:53:55;;;;;;;0.40;0.40;;;17.20;99.90;;;;;;5013097;28;20198;-70
2023/07/19 05:56:21;;;;;;;0.20;0.20;;;17.30;99.90;;;;;;5012976;28;20274;-69
2023/07/19 05:58:48;;;;;;;0.30;0.30;;;17.30;99.90;;;;;;5020813;28;20201;-69
2023/07/19 06:01:17;;;;;;;0.30;0.30;;;17.30;99.90;;;;;;5031144;28;20613;-69
2023/07/19 06:03:44;;;;;;;0.35;0.35;;;17.10;99.90;;;;;;5049984;28;20208;-69
2023/07/19 06:06:09;;;;;;;0.20;0.20;;;16.90;99.90;;;;;;5046374;28;20244;-70
2023/07/19 06:08:36;;;;;;;1.75;1.10;;;17.00;99.90;;;;;;5047740;28;20202;-69
2023/07/19 06:11:02;;;;;;;0.20;0.20;;;17.00;99.90;;;;;;5032804;28;20553;-70
2023/07/19 06:13:28;;;;;;;0.40;0.40;;;17.30;99.90;;;;;;5032374;28;20202;-70
2023/07/19 06:15:54;;;;;;;1.35;1.05;;;17.60;99.90;;;;;;5032647;28;20233;-69
2023/07/19 06:18:20;;;;;;;0.30;0.30;;;17.70;99.90;;;;;;5032352;28;20278;-70
2023/07/19 06:20:45;;;;;;;0.55;0.55;;;17.80;99.90;;;;;;5032314;28;20675;-70
2023/07/19 06:23:11;;;;;;;0.30;0.30;;;17.80;99.90;;;;;;5032125;28;20720;-69
2023/07/19 06:25:37;;;;;;;0.20;0.20;;;17.70;99.90;;;;;;5032176;28;20225;-70
2023/07/19 06:28:03;;;;;;;1.08;0.50;;;17.70;99.90;;;;;;5031722;28;20641;-68
2023/07/19 06:30:31;;;;;;;0.55;0.40;;;17.70;99.90;;;;;;5032117;28;20217;-68
2023/07/19 06:32:57;;;;;;;0.30;0.30;;;17.80;99.90;;;;;;5032539;28;20225;-68
2023/07/19 06:35:22;;;;;;;0.20;0.20;;;18.00;99.90;;;;;;5031965;28;20222;-69
2023/07/19 06:37:48;;;;;;;0.45;0.30;;;18.00;99.90;;;;;;5032295;28;20256;-69
2023/07/19 06:40:16;;;;;;;0.20;0.20;;;18.20;99.90;;;;;;5030861;28;20198;-69
2023/07/19 06:42:44;;;;;;;6.45;0.40;;;18.30;99.90;;;;;;5030526;28;20213;-68
2023/07/19 06:45:10;;;;;;;0.20;0.20;;;18.20;99.90;;;;;;5031941;28;20775;-70
2023/07/19 06:47:36;;;;;;;1.65;0.50;;;18.10;99.90;;;;;;5031739;28;20269;-69
2023/07/19 06:50:03;;;;;;;0.30;0.30;;;18.10;99.90;;;;;;5031872;28;20361;-69
2023/07/19 06:52:28;;;;;;;0.30;0.30;;;18.20;99.90;;;;;;5031651;28;20193;-69
2023/07/19 06:54:54;;;;;;;0.20;0.20;;;18.30;99.90;;;;;;5031766;28;20210;-70
2023/07/19 06:57:21;;;;;;;0.40;0.38;;;18.30;99.90;;;;;;5031538;28;20368;-70
2023/07/19 06:59:49;;;;;;;0.20;0.20;;;18.50;99.90;;;;;;5031827;28;20186;-70
2023/07/19 07:02:18;;;;;;;0.20;0.20;;;18.80;99.90;;;;;;5030235;28;20252;-69
2023/07/19 07:04:47;;;;;;;0.20;0.20;;;18.70;99.90;;;;;;5031461;28;20190;-70
2023/07/19 07:07:15;;;;;;;0.32;0.32;;;18.80;99.90;;;;;;5031698;28;20194;-70
2023/07/19 07:09:43;;;;;;;0.20;0.20;;;18.60;99.90;;;;;;5031023;28;20689;-71
2023/07/19 07:12:10;;;;;;;0.40;0.40;;;18.60;99.90;;;;;;5031392;28;20208;-70
2023/07/19 07:14:37;;;;;;;0.20;0.20;;;18.70;99.90;;;;;;5046519;28;20233;-70
2023/07/19 07:17:03;;;;;;;0.20;0.20;;;18.70;99.90;;;;;;5031497;28;20187;-70
2023/07/19 07:19:29;;;;;;;1.65;0.63;;;18.90;99.90;;;;;;5045999;28;20206;-69
2023/07/19 07:21:55;;;;;;;0.28;0.28;;;19.40;99.90;;;;;;5031247;28;20205;-70
2023/07/19 07:24:20;;;;;;;0.20;0.20;;;19.70;99.90;;;;;;5031067;28;20537;-70
2023/07/19 07:26:46;;;;;;;1.13;0.35;;;20.10;99.90;;;;;;5031236;28;20194;-71
2023/07/19 07:29:12;;;;;;;0.57;0.57;;;20.30;99.90;;;;;;5031168;28;20190;-71
2023/07/19 07:31:38;;;;;;;0.75;0.47;;;20.10;99.90;;;;;;5030869;28;20195;-71
2023/07/19 07:34:03;;;;;;;0.20;0.20;;;20.10;99.90;;;;;;5030014;28;20222;-72
2023/07/19 07:36:29;;;;;;;0.20;0.20;;;20.10;99.90;;;;;;5030782;28;20216;-73
2023/07/19 07:38:55;;;;;;;0.20;0.20;;;20.20;99.90;;;;;;5031331;28;20672;-70
2023/07/19 07:41:20;;;;;;;0.20;0.20;;;20.40;99.90;;;;;;5030627;28;20206;-71
2023/07/19 07:43:46;;;;;;;0.20;0.20;;;20.50;99.90;;;;;;5030808;28;20627;-70
2023/07/19 07:46:12;;;;;;;0.30;0.30;;;20.70;99.90;;;;;;5030930;28;20190;-70
2023/07/19 07:48:37;;;;;;;0.47;0.30;;;20.70;99.90;;;;;;5030015;28;20193;-70
2023/07/19 07:51:03;;;;;;;0.20;0.20;;;21.00;99.90;;;;;;5029339;28;20245;-70
2023/07/19 07:53:29;;;;;;;0.20;0.20;;;21.10;99.90;;;;;;5030646;28;20202;-70
2023/07/19 07:55:54;;;;;;;0.30;0.30;;;21.50;99.90;;;;;;5030716;28;20202;-70
2023/07/19 07:58:20;;;;;;;0.20;0.20;;;21.30;99.90;;;;;;5029058;28;20198;-72
2023/07/19 08:00:46;;;;;;;0.10;0.10;;;21.30;99.90;;;;;;5030738;28;20214;-71
2023/07/19 08:03:13;;;;;;;0.20;0.20;;;21.10;99.90;;;;;;5044017;28;20296;-71
2023/07/19 08:05:39;;;;;;;0.20;0.20;;;21.00;99.90;;;;;;5050332;28;20729;-71
2023/07/19 08:08:06;;;;;;;0.20;0.20;;;21.20;99.90;;;;;;5050534;28;20193;-71
2023/07/19 08:10:32;;;;;;;0.20;0.20;;;21.30;99.90;;;;;;5049968;28;20242;-70
2023/07/19 08:12:58;;;;;;;1.02;0.40;;;21.30;99.90;;;;;;5050533;28;20712;-70
2023/07/19 08:15:24;;;;;;;0.20;0.20;;;21.00;99.90;;;;;;5043981;28;20261;-71
2023/07/19 08:17:52;;;;;;;0.25;0.25;;;21.20;99.90;;;;;;5029317;28;20255;-70
2023/07/19 08:20:17;;;;;;;0.30;0.30;;;21.30;99.90;;;;;;5029177;28;20205;-72
2023/07/19 08:22:43;;;;;;;0.20;0.20;;;21.20;99.90;;;;;;5030208;28;20202;-70
2023/07/19 08:25:09;;;;;;;0.20;0.20;;;21.10;99.90;;;;;;5030484;28;20222;-70
2023/07/19 08:27:35;;;;;;;0.20;0.20;;;21.40;99.90;;;;;;5029633;28;20190;-70
2023/07/19 08:30:05;;;;;;;0.20;0.20;;;21.60;99.90;;;;;;5030429;28;20723;-70
2023/07/19 08:32:33;;;;;;;0.20;0.20;;;21.90;99.90;;;;;;5030284;28;20195;-70
2023/07/19 08:35:00;;;;;;;0.20;0.20;;;22.00;99.90;;;;;;5030609;28;20205;-71
2023/07/19 08:37:26;;;;;;;0.20;0.20;;;22.10;99.90;;;;;;5030173;28;20641;-71
2023/07/19 08:39:51;;;;;;;0.40;0.40;;;21.70;99.90;;;;;;5030308;28;20198;-71
2023/07/19 08:42:17;;;;;;;0.20;0.20;;;21.70;99.90;;;;;;5030141;28;20202;-71
2023/07/19 08:44:43;;;;;;;0.20;0.20;;;21.80;99.90;;;;;;5030094;28;20187;-71
2023/07/19 08:47:11;;;;;;;0.55;0.30;;;22.10;99.90;;;;;;5030044;28;20202;-71
2023/07/19 08:49:38;;;;;;;0.10;0.10;;;22.20;99.90;;;;;;5030276;28;20490;-71
2023/07/19 08:52:06;;;;;;;0.10;0.10;;;22.30;99.90;;;;;;5030240;28;20194;-71
2023/07/19 08:54:32;;;;;;;0.52;0.52;;;22.10;99.90;;;;;;5029848;28;20252;-71
2023/07/19 08:56:58;;;;;;;0.20;0.20;;;22.30;99.90;;;;;;5045472;28;20209;-70
2023/07/19 08:59:25;;;;;;;0.10;0.10;;;22.30;99.90;;;;;;5029812;28;20202;-71
2023/07/19 09:01:51;;;;;;;0.28;0.28;;;22.60;99.90;;;;;;5032066;28;20709;-72
2023/07/19 09:04:17;;;;;;;0.10;0.10;;;22.70;99.90;;;;;;5048559;28;20194;-71
2023/07/19 09:06:42;;;;;;;0.10;0.10;;;22.50;99.90;;;;;;5048528;28;20201;-71
2023/07/19 09:09:09;;;;;;;0.10;0.10;;;22.00;99.90;;;;;;5048079;28;20189;-71
2023/07/19 09:11:35;;;;;;;0.20;0.20;;;21.80;99.90;;;;;;5043986;28;20273;-71
2023/07/19 09:14:01;;;;;;;0.10;0.10;;;21.30;99.90;;;;;;5030007;28;20290;-71
2023/07/19 09:16:30;;;;;;;0.20;0.20;;;21.00;99.90;;;;;;5029604;28;20709;-71
2023/07/19 09:19:00;;;;;;;0.10;0.10;;;20.90;99.90;;;;;;5028753;28;20233;-70
2023/07/19 09:21:32;;;;;;;0.20;0.20;;;21.00;99.90;;;;;;5030897;28;20190;-69
2023/07/19 09:24:02;;;;;;;0.10;0.10;;;21.00;99.90;;;;;;5033576;28;20433;-70
2023/07/19 09:26:28;;;;;;;0.20;0.20;;;21.40;99.90;;;;;;5033290;28;20281;-69
2023/07/19 09:28:55;;;;;;;0.17;0.17;;;21.80;99.90;;;;;;5032367;28;20739;-69
2023/07/19 09:31:22;;;;;;;0.20;0.20;;;22.10;99.90;;;;;;5033417;28;20587;-71
2023/07/19 09:33:48;;;;;;;0.10;0.10;;;22.20;99.90;;;;;;5033155;28;20202;-71
2023/07/19 09:36:18;;;;;;;0.22;0.22;;;22.30;99.90;;;;;;5033008;28;20190;-73
2023/07/19 09:38:44;;;;;;;0.10;0.10;;;22.20;99.90;;;;;;5033163;28;20561;-70
2023/07/19 09:41:10;;;;;;;0.20;0.20;;;22.00;99.90;;;;;;5033207;28;20202;-72
2023/07/19 09:43:37;;;;;;;0.20;0.20;;;22.00;99.90;;;;;;5032674;28;20202;-71
2023/07/19 09:46:03;;;;;;;0.17;0.17;;;22.00;99.90;;;;;;5031975;28;20198;-71
2023/07/19 09:48:30;;;;;;;0.10;0.10;;;21.90;99.90;;;;;;5032928;28;20563;-69
2023/07/19 09:51:02;;;;;;;0.10;0.10;;;21.80;99.90;;;;;;5032964;28;20688;-70
2023/07/19 09:53:30;;;;;;;0.20;0.20;;;21.40;99.90;;;;;;5032554;28;20190;-70
2023/07/19 09:55:57;;;;;;;0.20;0.20;;;21.10;99.90;;;;;;5032290;28;20293;-70
2023/07/19 09:58:26;;;;;;;0.20;0.20;;;21.30;99.90;;;;;;5031268;28;20202;-71
2023/07/19 10:00:52;;;;;;;0.20;0.20;;;21.60;99.90;;;;;;5032733;28;20607;-71
2023/07/19 10:03:19;;;;;;;0.10;0.10;;;21.60;99.90;;;;;;5062022;28;20572;-71
2023/07/19 10:05:45;;;;;;;0.20;0.20;;;21.60;99.90;;;;;;5051255;28;20193;-71
2023/07/19 10:08:11;;;;;;;0.20;0.20;;;21.40;99.90;;;;;;5044207;28;20232;-73
2023/07/19 10:10:40;;;;;;;0.38;0.38;;;21.60;99.90;;;;;;5032437;28;20273;-71
2023/07/19 10:13:07;;;;;;;0.10;0.10;;;21.60;99.90;;;;;;5031228;28;20204;-70
2023/07/19 10:15:34;;;;;;;0.10;0.10;;;21.40;99.90;;;;;;5032465;28;20194;-70
2023/07/19 10:18:01;;;;;;;0.20;0.20;;;21.20;99.90;;;;;;5032592;28;20204;-71
2023/07/19 10:20:26;;;;;;;0.20;0.20;;;21.20;99.90;;;;;;5032158;28;20245;-70
2023/07/19 10:22:57;;;;;;;0.30;0.30;;;21.00;99.90;;;;;;5032553;28;20264;-71
2023/07/19 10:25:27;;;;;;;2.75;0.98;;;20.60;99.90;;;;;;5032111;28;20209;-70
2023/07/19 10:27:59;;;;;;;0.20;0.20;;;20.60;99.90;;;;;;5032141;28;20661;-70
2023/07/19 10:30:46;;;;;;;0.25;0.25;;;20.60;99.90;;;;;;5032141;28;20186;-70
2023/07/19 10:33:14;;;;;;;0.20;0.20;;;20.90;99.90;;;;;;5031832;28;20681;-69
2023/07/19 10:35:40;;;;;;;0.30;0.28;;;20.80;99.90;;;;;;5032051;28;20205;-69
2023/07/19 10:38:17;;;;;;;0.47;0.40;;;20.60;99.90;;;;;;5032120;28;20665;-69
2023/07/19 10:40:45;;;;;;;0.20;0.20;;;20.50;99.90;;;;;;5031937;28;20656;-69
2023/07/19 10:43:11;;;;;;;0.20;0.20;;;20.40;99.90;;;;;;5032189;28;20206;-70
2023/07/19 10:45:38;;;;;;;0.30;0.30;;;20.30;99.90;;;;;;5030211;28;20206;-69
2023/07/19 10:48:05;;;;;;;0.20;0.20;;;20.60;99.90;;;;;;5031952;28;20213;-70
2023/07/19 10:50:31;;;;;;;0.20;0.20;;;20.60;99.90;;;;;;5046356;28;20205;-69
2023/07/19 10:52:57;;;;;;;0.20;0.20;;;20.20;99.90;;;;;;5047012;28;20203;-70
2023/07/19 10:55:23;;;;;;;0.20;0.20;;;20.30;99.90;;;;;;5031786;28;20182;-70
2023/07/19 10:57:49;;;;;;;0.20;0.20;;;20.30;99.90;;;;;;5047240;28;20736;-69
2023/07/19 11:00:15;;;;;;;0.10;0.10;;;20.30;99.90;;;;;;5031586;28;20206;-70
2023/07/19 11:02:40;;;;;;;0.32;0.32;;;20.50;99.90;;;;;;5040020;28;20221;-70
2023/07/19 11:05:07;;;;;;;0.20;0.20;;;20.80;99.90;;;;;;5037670;28;20230;-70
2023/07/19 11:07:34;;;;;;;0.25;0.25;;;21.10;99.90;;;;;;5031231;28;20194;-70
2023/07/19 11:10:00;;;;;;;0.20;0.20;;;21.10;99.90;;;;;;5031522;28;20277;-70
2023/07/19 11:12:27;;;;;;;0.30;0.30;;;21.10;99.90;;;;;;5031059;28;20217;-70
2023/07/19 11:14:58;;;;;;;1.08;0.38;;;21.00;99.90;;;;;;5031859;28;20216;-70
2023/07/19 11:17:28;;;;;;;0.15;0.15;;;20.90;99.90;;;;;;5031289;28;20244;-70
2023/07/19 11:19:55;;;;;;;0.20;0.20;;;20.80;99.90;;;;;;5030165;28;20552;-69
2023/07/19 11:22:22;;;;;;;0.30;0.30;;;21.10;99.90;;;;;;5029673;28;20206;-70
2023/07/19 11:24:52;;;;;;;0.20;0.20;;;21.50;99.90;;;;;;5030112;28;20336;-71
2023/07/19 11:27:19;;;;;;;0.10;0.10;;;22.60;99.90;;;;;;5031508;28;20209;-70
2023/07/19 11:29:50;;;;;;;0.20;0.20;;;23.40;99.90;;;;;;5031174;28;20195;-70
2023/07/19 11:32:18;;;;;;;0.10;0.10;;;24.10;99.90;;;;;;5031086;28;20209;-70
2023/07/19 11:34:51;;;;;;;0.10;0.10;;;24.90;99.90;;;;;;5030795;28;20228;-70
2023/07/19 11:37:25;;;;;;;0.10;0.10;;;25.00;96.00;;;;;;5030100;28;20205;-71
2023/07/19 11:39:52;;;;;;;0.20;0.20;;;24.90;96.40;;;;;;5029055;28;20245;-69
2023/07/19 11:42:40;;;;;;;0.10;0.10;;;24.60;97.20;;;;;;5030828;28;20198;-70
2023/07/19 11:45:16;;;;;;;0.10;0.10;;;24.10;97.00;;;;;;5029621;28;20194;-71
2023/07/19 11:47:44;;;;;;;1.08;0.50;;;23.30;96.40;;;;;;5030071;28;20208;-71
2023/07/19 11:50:11;;;;;;;0.20;0.20;;;23.10;98.70;;;;;;5029028;28;20397;-71
2023/07/19 11:52:48;;;;;;;0.10;0.10;;;22.70;97.40;;;;;;5046253;28;20232;-71
2023/07/19 11:55:18;;;;;;;0.20;0.20;;;22.00;97.00;;;;;;5030606;28;20193;-71
2023/07/19 11:57:46;;;;;;;0.10;0.10;;;22.00;98.30;;;;;;5046245;28;20293;-72
2023/07/19 12:00:14;;;;;;;0.20;0.20;;;22.30;98.50;;;;;;5045879;28;20240;-71
2023/07/19 12:02:43;;;;;;;0.10;0.10;;;22.70;98.80;;;;;;5054325;28;20803;-72
2023/07/19 12:05:30;;;;;;;0.20;0.20;;;23.10;98.40;;;;;;5050968;28;20627;-73
2023/07/19 12:07:56;;;;;;;0.17;0.17;;;23.10;97.00;;;;;;5049288;28;20211;-68
2023/07/19 12:10:23;;;;;;;1.27;0.65;;;23.20;98.80;;;;;;5049004;28;20197;-72
2023/07/19 12:12:49;;;;;;;0.10;0.10;;;23.60;97.30;;;;;;5050412;28;20625;-71
2023/07/19 12:15:16;;;;;;;1.23;0.57;;;23.50;97.20;;;;;;5050362;28;20208;-70
2023/07/19 12:17:43;;;;;;;0.10;0.10;;;23.20;96.00;;;;;;5050323;28;20189;-72
2023/07/19 12:20:09;;;;;;;0.17;0.17;;;23.30;97.50;;;;;;5049082;28;20288;-72
2023/07/19 12:22:36;;;;;;;0.20;0.20;;;23.60;98.10;;;;;;5031860;28;20233;-70
2023/07/19 12:25:03;;;;;;;0.10;0.10;;;24.10;94.30;;;;;;5030747;28;20218;-70
2023/07/19 12:27:29;;;;;;;0.20;0.20;;;24.30;95.00;;;;;;5030127;28;20186;-69
2023/07/19 12:29:58;;;;;;;0.20;0.20;;;24.20;94.80;;;;;;5030496;28;20225;-70
2023/07/19 12:32:24;;;;;;;0.28;0.28;;;24.80;95.90;;;;;;5029913;28;20692;-71
2023/07/19 12:34:50;;;;;;;0.17;0.17;;;25.50;95.70;;;;;;5029159;28;20218;-70
2023/07/19 12:37:16;;;;;;;0.10;0.10;;;25.20;95.10;;;;;;5030178;28;20225;-70
2023/07/19 12:39:42;;;;;;;0.10;0.10;;;24.90;91.90;;;;;;5028416;28;20197;-71
2023/07/19 12:42:09;;;;;;;0.20;0.20;;;24.90;93.20;;;;;;5029737;28;20206;-70
2023/07/19 12:44:36;;;;;;;0.10;0.10;;;24.50;91.90;;;;;;5030115;28;20621;-70